Bob Hope Airport
KBUR : now visible

Airfield :











YOU CAN JOIN US ON...

 
LOGIN :

Register | Disclaimer

   EN    FR    IT 

 









Legend :    VFR   Marginal VFR   IFR   Intensive IFR   Very Intensive IFR
Visi :
Ceiling :
>= 8 km
>= 3000ft
5 to 8 km
1000 to 3000 ft
1500m to 5 km
500 to 1000 ft
800 to 1500m
200 to 500 ft
< 800m
< 200 ft
Symbols :   Thunderstorms  Fog  Heavy snow  Heavy precipitations  Wind > 20 kt






- Airport Elevation : 778 ft
- IATA code : BUR


KBUR - Bob Hope

CURRENT METAR :
  • 212353Z VRB05KT 10SM CLR 17/08 A3010 RMK AO2 SLP185 T01720078 10172 20139 58010

EXPIRED METARs :
  • 212253Z 16006KT 10SM SCT050 17/08 A3013 RMK AO2 SLP193 T01720078
  • 212153Z 21010G16KT 10SM FEW034 BKN060 17/09 A3013 RMK AO2 SLP196 T01720089
  • 212053Z 16006KT 10SM FEW065 17/09 A3013 RMK AO2 SLP195 T01670094 58002
  • 211953Z 00000KT 10SM BKN034 17/08 A3016 RMK AO2 SLP204 T01670083

TAF KBUR
Valid from the 22 at 00:00 until the 23 at 00:00 UTC


212346Z 2200/2224 16008KT P6SM SCT050
FM220300 VRB03KT P6SM SCT050
FM222200 20006KT P6SM SCT050
KZLA FIR / North America



MET'MAP, your aeronautical weather chart ! - Copyright ORBIFLY December 2007 - Disclaimer

ORBIFLY MET'MAP TEAM :

Programming & Development : Alexandra Zaïnal
Original concept : Baudouin d'Aumeries
Technical & hardware support : Manuel Goepfert
Assistance : Marc-Olivier Méhu




SOURCES & CREDITS :

   NOAA       Earth
Advisory